IBE0156 SKBO-LEMD
Flight info
| Callsign | IBE0156 |
|---|---|
| Flight time | N/A |
| Altitude | 39000 |
| Route | ZIP5H BUV DCT KOVBU DCT PIE DCT ENPUT UG431 ALCOT UL325 PJG UM576 ACORA DCT MILOK/N0478F410 M576 OBIKE/M084F410 DCT RKDIA DCT 26N050W 30N040W 33N030W 36N020W DCT KOMUT/N0480F430 DCT RODAP DCT RAKOD DCT OGERO DCT ROLDO DCT RUKER Z409 TLD |
| Aircraft | A359/H-SDE2E3GHIJ3J4J5LM1ORWXY/LB1D1 |
Departure
| Time | 2026-04-30 20:26 |
|---|---|
| Airport | El Dorado International Airport (SKBO) |
Arrival
| Time | N/A |
|---|---|
| Airport | Adolfo Suárez Madrid–Barajas Airport (LEMD) |
| Time | Latitude | Longitude | Altitude | Speed | Heading |
|---|---|---|---|---|---|
| 2026-04-30 19:52 | 4.69952 | -74.14069 | 8377 ft | 0 kts | 219° |
| 2026-04-30 20:12 | 4.69974 | -74.14050 | 8376 ft | 2 kts | 219° |
| 2026-04-30 20:12 | 4.69991 | -74.14033 | 8379 ft | 4 kts | 244° |
| 2026-04-30 20:12 | 4.69996 | -74.14008 | 8379 ft | 4 kts | 282° |
| 2026-04-30 20:13 | 4.69986 | -74.13984 | 8379 ft | 4 kts | 304° |
| 2026-04-30 20:13 | 4.69971 | -74.13963 | 8379 ft | 2 kts | 307° |
| 2026-04-30 20:13 | 4.69979 | -74.13973 | 8377 ft | 4 kts | 307° |
| 2026-04-30 20:13 | 4.69990 | -74.13988 | 8379 ft | 1 kts | 307° |
| 2026-04-30 20:19 | 4.70000 | -74.14002 | 8376 ft | 5 kts | 307° |
| 2026-04-30 20:19 | 4.70023 | -74.14029 | 8376 ft | 5 kts | 318° |
| 2026-04-30 20:20 | 4.70051 | -74.14033 | 8374 ft | 4 kts | 11° |
| 2026-04-30 20:20 | 4.70089 | -74.14010 | 8375 ft | 9 kts | 34° |
| 2026-04-30 20:20 | 4.70148 | -74.13982 | 8376 ft | 9 kts | 352° |
| 2026-04-30 20:20 | 4.70195 | -74.14024 | 8376 ft | 12 kts | 308° |
| 2026-04-30 20:21 | 4.70255 | -74.14102 | 8374 ft | 15 kts | 307° |
| 2026-04-30 20:21 | 4.70320 | -74.14189 | 8374 ft | 16 kts | 307° |
| 2026-04-30 20:21 | 4.70390 | -74.14282 | 8376 ft | 17 kts | 307° |
| 2026-04-30 20:21 | 4.70463 | -74.14378 | 8377 ft | 18 kts | 307° |
| 2026-04-30 20:22 | 4.70539 | -74.14478 | 8375 ft | 18 kts | 307° |
| 2026-04-30 20:22 | 4.70617 | -74.14582 | 8375 ft | 19 kts | 307° |
| 2026-04-30 20:22 | 4.70699 | -74.14689 | 8375 ft | 20 kts | 307° |
| 2026-04-30 20:22 | 4.70784 | -74.14801 | 8375 ft | 20 kts | 307° |
| 2026-04-30 20:23 | 4.70870 | -74.14915 | 8378 ft | 21 kts | 307° |
| 2026-04-30 20:23 | 4.70959 | -74.15033 | 8377 ft | 21 kts | 307° |
| 2026-04-30 20:23 | 4.71050 | -74.15152 | 8375 ft | 21 kts | 307° |
| 2026-04-30 20:23 | 4.71119 | -74.15244 | 8376 ft | 11 kts | 307° |
| 2026-04-30 20:24 | 4.71174 | -74.15297 | 8377 ft | 11 kts | 330° |
| 2026-04-30 20:24 | 4.71239 | -74.15289 | 8376 ft | 10 kts | 36° |
| 2026-04-30 20:24 | 4.71290 | -74.15238 | 8374 ft | 11 kts | 46° |
| 2026-04-30 20:24 | 4.71304 | -74.15169 | 8374 ft | 10 kts | 113° |
| 2026-04-30 20:25 | 4.71214 | -74.15044 | 8373 ft | 18 kts | 127° |
| 2026-04-30 20:25 | 4.71045 | -74.14822 | 8371 ft | 70 kts | 127° |
| 2026-04-30 20:26 | 4.69971 | -74.13397 | 8388 ft | 179 kts | 128° |
| 2026-04-30 20:26 | 4.68622 | -74.11438 | 9881 ft | 178 kts | 114° |
| 2026-04-30 20:26 | 4.68585 | -74.10229 | 10448 ft | 178 kts | 67° |
| 2026-04-30 20:27 | 4.70697 | -74.08987 | 11332 ft | 187 kts | 19° |
| 2026-04-30 20:27 | 4.73361 | -74.08227 | 11874 ft | 215 kts | 20° |
| 2026-04-30 20:28 | 4.76434 | -74.07238 | 12325 ft | 248 kts | 22° |
| 2026-04-30 20:28 | 4.79907 | -74.06076 | 12731 ft | 279 kts | 21° |
| 2026-04-30 20:29 | 4.83654 | -74.04813 | 13968 ft | 288 kts | 22° |
| 2026-04-30 20:30 | 4.89650 | -74.02785 | 15120 ft | 325 kts | 21° |
| 2026-04-30 20:30 | 4.96264 | -74.00544 | 16564 ft | 341 kts | 21° |
| 2026-04-30 20:31 | 5.03119 | -73.98246 | 18237 ft | 352 kts | 20° |
| 2026-04-30 20:32 | 5.10644 | -73.96425 | 18978 ft | 388 kts | 17° |
| 2026-04-30 20:32 | 5.16009 | -73.95118 | 19502 ft | 403 kts | 17° |
| 2026-04-30 20:33 | 5.18747 | -73.94442 | 19904 ft | 407 kts | 17° |
| 2026-04-30 20:33 | 5.24288 | -73.93067 | 20808 ft | 413 kts | 17° |
| 2026-04-30 20:33 | 5.27092 | -73.92373 | 21199 ft | 417 kts | 17° |
| 2026-04-30 20:34 | 5.32772 | -73.90960 | 22063 ft | 423 kts | 17° |
| 2026-04-30 20:34 | 5.38489 | -73.89535 | 22913 ft | 429 kts | 17° |
| 2026-04-30 20:35 | 5.41401 | -73.88809 | 23322 ft | 432 kts | 16° |
| 2026-04-30 20:35 | 5.44332 | -73.88079 | 23654 ft | 436 kts | 17° |
| 2026-04-30 20:35 | 5.50253 | -73.86603 | 24344 ft | 440 kts | 16° |
| 2026-04-30 20:36 | 5.53184 | -73.85713 | 24753 ft | 440 kts | 24° |
| 2026-04-30 20:36 | 5.55966 | -73.84435 | 25100 ft | 442 kts | 28° |
| 2026-04-30 20:36 | 5.61392 | -73.81423 | 25844 ft | 448 kts | 31° |
| 2026-04-30 20:37 | 5.64096 | -73.79835 | 26239 ft | 451 kts | 31° |
| 2026-04-30 20:37 | 5.66816 | -73.78240 | 26625 ft | 456 kts | 31° |
| 2026-04-30 20:37 | 5.69572 | -73.76640 | 27044 ft | 459 kts | 30° |
| 2026-04-30 20:37 | 5.72358 | -73.75042 | 27400 ft | 463 kts | 30° |
| 2026-04-30 20:38 | 5.75162 | -73.73446 | 27820 ft | 465 kts | 29° |
| 2026-04-30 20:38 | 5.77995 | -73.71841 | 28178 ft | 469 kts | 29° |
| 2026-04-30 20:38 | 5.80841 | -73.70232 | 28559 ft | 472 kts | 28° |
| 2026-04-30 20:39 | 5.86612 | -73.66968 | 29271 ft | 479 kts | 28° |
| 2026-04-30 20:39 | 5.89521 | -73.65322 | 29696 ft | 481 kts | 28° |
| 2026-04-30 20:39 | 5.91457 | -73.64227 | 30003 ft | 481 kts | 28° |
| 2026-04-30 20:40 | 5.97323 | -73.60906 | 30628 ft | 487 kts | 28° |
| 2026-04-30 20:40 | 6.01247 | -73.58691 | 30982 ft | 490 kts | 28° |
| 2026-04-30 20:40 | 6.03261 | -73.57550 | 31180 ft | 492 kts | 27° |
| 2026-04-30 20:41 | 6.09225 | -73.54165 | 31769 ft | 497 kts | 27° |
| 2026-04-30 20:41 | 6.12246 | -73.52451 | 32051 ft | 500 kts | 27° |
| 2026-04-30 20:41 | 6.15278 | -73.50730 | 32315 ft | 502 kts | 27° |
| 2026-04-30 20:41 | 6.18335 | -73.48996 | 32578 ft | 505 kts | 27° |
| 2026-04-30 20:42 | 6.21406 | -73.47253 | 32833 ft | 507 kts | 27° |
| 2026-04-30 20:42 | 6.24489 | -73.45504 | 32910 ft | 512 kts | 27° |
| 2026-04-30 20:42 | 6.30733 | -73.41962 | 33424 ft | 516 kts | 27° |
| 2026-04-30 20:43 | 6.33864 | -73.40183 | 33686 ft | 517 kts | 27° |
| 2026-04-30 20:43 | 6.37007 | -73.38397 | 33889 ft | 520 kts | 26° |
| 2026-04-30 20:43 | 6.40160 | -73.36609 | 34120 ft | 522 kts | 26° |
| 2026-04-30 20:44 | 6.46456 | -73.33037 | 34595 ft | 522 kts | 26° |
| 2026-04-30 20:44 | 6.49616 | -73.31241 | 34922 ft | 520 kts | 26° |
| 2026-04-30 20:44 | 6.55901 | -73.27668 | 35478 ft | 518 kts | 26° |
| 2026-04-30 20:45 | 6.62206 | -73.24087 | 35917 ft | 520 kts | 26° |
| 2026-04-30 20:45 | 6.65352 | -73.22300 | 36252 ft | 519 kts | 26° |
| 2026-04-30 20:45 | 6.68489 | -73.20517 | 36542 ft | 518 kts | 26° |
| 2026-04-30 20:46 | 6.77866 | -73.15187 | 37373 ft | 515 kts | 26° |
| 2026-04-30 20:46 | 6.80982 | -73.13415 | 37619 ft | 514 kts | 25° |
| 2026-04-30 20:47 | 6.87199 | -73.09879 | 38144 ft | 512 kts | 25° |
| 2026-04-30 20:47 | 6.90304 | -73.08122 | 38441 ft | 511 kts | 25° |
| 2026-04-30 20:48 | 6.96541 | -73.04730 | 38832 ft | 509 kts | 24° |
| 2026-04-30 20:48 | 6.99672 | -73.03053 | 38911 ft | 510 kts | 24° |
| 2026-04-30 20:48 | 7.05924 | -72.99697 | 38905 ft | 509 kts | 24° |
| 2026-04-30 20:49 | 7.12174 | -72.96321 | 38910 ft | 509 kts | 24° |
| 2026-04-30 20:50 | 7.21529 | -72.91248 | 38954 ft | 507 kts | 24° |
| 2026-04-30 20:50 | 7.27738 | -72.87880 | 38970 ft | 508 kts | 24° |
| 2026-04-30 20:51 | 7.33974 | -72.84497 | 38962 ft | 509 kts | 24° |
| 2026-04-30 20:51 | 7.43293 | -72.79433 | 38973 ft | 510 kts | 24° |
| 2026-04-30 20:52 | 7.49547 | -72.76041 | 38979 ft | 511 kts | 24° |
| 2026-04-30 20:53 | 7.58922 | -72.70952 | 38946 ft | 510 kts | 24° |
| 2026-04-30 20:53 | 7.65169 | -72.67560 | 38951 ft | 509 kts | 25° |
| 2026-04-30 20:54 | 7.74517 | -72.62479 | 38901 ft | 508 kts | 25° |
| 2026-04-30 20:55 | 7.83848 | -72.57403 | 38860 ft | 508 kts | 24° |
| 2026-04-30 20:55 | 7.90043 | -72.54033 | 38857 ft | 508 kts | 24° |
| 2026-04-30 20:56 | 7.99381 | -72.48950 | 38856 ft | 509 kts | 24° |
| 2026-04-30 20:57 | 8.08741 | -72.43853 | 38852 ft | 510 kts | 24° |
| 2026-04-30 20:57 | 8.14988 | -72.40449 | 38841 ft | 511 kts | 24° |
| 2026-04-30 20:58 | 8.24361 | -72.35328 | 38819 ft | 510 kts | 25° |
| 2026-04-30 20:58 | 8.30576 | -72.31849 | 38818 ft | 510 kts | 25° |
| 2026-04-30 20:59 | 8.39883 | -72.26620 | 38796 ft | 509 kts | 25° |
| 2026-04-30 21:00 | 8.52254 | -72.19701 | 38793 ft | 508 kts | 25° |
| 2026-04-30 21:01 | 8.61501 | -72.14528 | 38790 ft | 508 kts | 25° |
| 2026-04-30 21:02 | 8.70765 | -72.09342 | 38785 ft | 506 kts | 25° |
| 2026-04-30 21:02 | 8.76924 | -72.05892 | 38785 ft | 505 kts | 25° |
| 2026-04-30 21:03 | 8.83077 | -72.02445 | 38778 ft | 505 kts | 25° |
| 2026-04-30 21:03 | 8.89230 | -71.98997 | 38780 ft | 505 kts | 25° |
| 2026-04-30 21:04 | 8.95375 | -71.95547 | 38783 ft | 506 kts | 26° |
| 2026-04-30 21:04 | 9.03701 | -71.88959 | 38780 ft | 511 kts | 38° |
| 2026-04-30 21:05 | 9.08972 | -71.84130 | 38782 ft | 512 kts | 39° |
| 2026-04-30 21:05 | 9.14237 | -71.79267 | 38788 ft | 512 kts | 39° |
| 2026-04-30 21:06 | 9.19512 | -71.74416 | 38785 ft | 512 kts | 39° |
| 2026-04-30 21:06 | 9.24788 | -71.69579 | 38788 ft | 512 kts | 39° |
| 2026-04-30 21:07 | 9.30070 | -71.64738 | 38788 ft | 512 kts | 39° |
| 2026-04-30 21:07 | 9.35345 | -71.59901 | 38790 ft | 512 kts | 40° |
| 2026-04-30 21:08 | 9.40612 | -71.55068 | 38786 ft | 510 kts | 40° |
| 2026-04-30 21:08 | 9.45842 | -71.50268 | 38788 ft | 509 kts | 40° |
| 2026-04-30 21:09 | 9.51087 | -71.45450 | 38788 ft | 510 kts | 40° |
| 2026-04-30 21:09 | 9.56342 | -71.40623 | 38788 ft | 509 kts | 40° |
| 2026-04-30 21:10 | 9.61599 | -71.35790 | 38791 ft | 509 kts | 40° |
| 2026-04-30 21:10 | 9.66850 | -71.30961 | 38790 ft | 509 kts | 40° |
| 2026-04-30 21:11 | 9.72122 | -71.26112 | 38789 ft | 514 kts | 40° |
| 2026-04-30 21:11 | 9.77419 | -71.21240 | 38788 ft | 519 kts | 40° |
| 2026-04-30 21:12 | 9.82767 | -71.16321 | 38788 ft | 519 kts | 40° |
| 2026-04-30 21:12 | 9.88100 | -71.11405 | 38791 ft | 518 kts | 40° |
| 2026-04-30 21:13 | 9.93436 | -71.06480 | 38791 ft | 518 kts | 40° |
| 2026-04-30 21:13 | 9.98764 | -71.01563 | 38799 ft | 518 kts | 40° |
| 2026-04-30 21:14 | 10.04102 | -70.96638 | 38800 ft | 519 kts | 40° |
| 2026-04-30 21:14 | 10.09447 | -70.91704 | 38808 ft | 519 kts | 40° |
| 2026-04-30 21:15 | 10.14792 | -70.86771 | 38814 ft | 520 kts | 40° |
| 2026-04-30 21:15 | 10.20140 | -70.81834 | 38812 ft | 519 kts | 40° |
| 2026-04-30 21:16 | 10.25476 | -70.76899 | 38815 ft | 519 kts | 40° |
| 2026-04-30 21:16 | 10.30782 | -70.71992 | 38815 ft | 519 kts | 40° |
| 2026-04-30 21:17 | 10.36126 | -70.67054 | 38814 ft | 519 kts | 40° |
| 2026-04-30 21:17 | 10.41472 | -70.62107 | 38813 ft | 519 kts | 40° |
| 2026-04-30 21:18 | 10.46804 | -70.57167 | 38824 ft | 519 kts | 40° |
| 2026-04-30 21:18 | 10.52142 | -70.52218 | 38828 ft | 519 kts | 40° |
| 2026-04-30 21:19 | 10.57471 | -70.47279 | 38822 ft | 518 kts | 40° |
| 2026-04-30 21:19 | 10.62801 | -70.42336 | 38825 ft | 518 kts | 40° |
| 2026-04-30 21:20 | 10.68123 | -70.37398 | 38822 ft | 518 kts | 40° |
| 2026-04-30 21:20 | 10.73442 | -70.32428 | 38819 ft | 519 kts | 40° |
| 2026-04-30 21:21 | 10.78768 | -70.27457 | 38825 ft | 519 kts | 40° |
| 2026-04-30 21:22 | 10.86718 | -70.20046 | 38817 ft | 519 kts | 40° |
| 2026-04-30 21:23 | 10.97363 | -70.10122 | 38805 ft | 518 kts | 40° |
| 2026-04-30 21:23 | 11.05348 | -70.02671 | 38813 ft | 521 kts | 40° |
| 2026-04-30 21:24 | 11.10697 | -69.97697 | 38810 ft | 521 kts | 40° |
| 2026-04-30 21:24 | 11.16051 | -69.92725 | 38815 ft | 521 kts | 40° |
| 2026-04-30 21:25 | 11.24085 | -69.85258 | 38819 ft | 521 kts | 40° |
| 2026-04-30 21:26 | 11.32093 | -69.77810 | 38900 ft | 519 kts | 40° |
| 2026-04-30 21:27 | 11.40100 | -69.70355 | 38912 ft | 520 kts | 40° |
| 2026-04-30 21:27 | 11.45486 | -69.65483 | 38911 ft | 520 kts | 38° |
| 2026-04-30 21:28 | 11.53803 | -69.58384 | 38891 ft | 520 kts | 38° |
| 2026-04-30 21:29 | 11.62089 | -69.51254 | 38857 ft | 519 kts | 38° |
| 2026-04-30 21:30 | 11.74951 | -69.40099 | 38829 ft | 522 kts | 38° |
| 2026-04-30 21:31 | 11.88793 | -69.28078 | 38832 ft | 522 kts | 38° |
| 2026-04-30 21:32 | 11.97109 | -69.20861 | 38835 ft | 522 kts | 38° |
| 2026-04-30 21:32 | 12.02664 | -69.16031 | 38833 ft | 527 kts | 38° |
| 2026-04-30 21:33 | 12.11051 | -69.08735 | 38833 ft | 527 kts | 38° |
| 2026-04-30 21:34 | 12.16640 | -69.03870 | 38831 ft | 527 kts | 38° |
| 2026-04-30 21:34 | 12.24786 | -68.96362 | 38829 ft | 529 kts | 44° |
| 2026-04-30 21:35 | 12.29889 | -68.90930 | 38833 ft | 530 kts | 44° |
| 2026-04-30 21:35 | 12.35019 | -68.85500 | 38839 ft | 532 kts | 43° |
| 2026-04-30 21:36 | 12.40220 | -68.80105 | 38845 ft | 532 kts | 43° |
| 2026-04-30 21:37 | 12.50685 | -68.69342 | 38859 ft | 532 kts | 42° |
| 2026-04-30 21:37 | 12.55900 | -68.63971 | 38859 ft | 532 kts | 43° |
| 2026-04-30 21:38 | 12.61118 | -68.58589 | 38865 ft | 532 kts | 42° |
| 2026-04-30 21:38 | 12.66309 | -68.53233 | 38858 ft | 529 kts | 42° |
| 2026-04-30 21:39 | 12.71493 | -68.47881 | 38859 ft | 529 kts | 42° |
| 2026-04-30 21:39 | 12.76648 | -68.42557 | 38867 ft | 529 kts | 42° |
| 2026-04-30 21:40 | 12.81836 | -68.37195 | 38865 ft | 529 kts | 42° |
| 2026-04-30 21:40 | 12.87020 | -68.31837 | 38873 ft | 530 kts | 42° |
| 2026-04-30 21:41 | 12.92195 | -68.26459 | 38875 ft | 529 kts | 42° |
| 2026-04-30 21:41 | 12.97353 | -68.21096 | 38870 ft | 526 kts | 42° |
| 2026-04-30 21:42 | 13.02493 | -68.15756 | 38872 ft | 526 kts | 42° |
| 2026-04-30 21:42 | 13.07628 | -68.10420 | 38873 ft | 526 kts | 42° |
| 2026-04-30 21:43 | 13.12770 | -68.05073 | 38875 ft | 526 kts | 42° |
| 2026-04-30 21:43 | 13.17912 | -67.99722 | 38876 ft | 526 kts | 42° |
| 2026-04-30 21:44 | 13.23013 | -67.94409 | 38883 ft | 526 kts | 42° |
| 2026-04-30 21:44 | 13.28143 | -67.89089 | 38878 ft | 523 kts | 41° |
| 2026-04-30 21:45 | 13.33289 | -67.83833 | 38878 ft | 522 kts | 41° |
| 2026-04-30 21:45 | 13.38400 | -67.78525 | 38884 ft | 522 kts | 42° |
| 2026-04-30 21:46 | 13.43493 | -67.73207 | 38883 ft | 522 kts | 42° |
| 2026-04-30 21:46 | 13.48599 | -67.67877 | 38886 ft | 522 kts | 42° |
| 2026-04-30 21:47 | 13.53702 | -67.62554 | 38886 ft | 522 kts | 42° |
| 2026-04-30 21:47 | 13.58796 | -67.57237 | 38889 ft | 522 kts | 42° |
| 2026-04-30 21:48 | 13.63895 | -67.51913 | 38888 ft | 522 kts | 42° |
| 2026-04-30 21:48 | 13.69002 | -67.46660 | 38889 ft | 522 kts | 40° |
| 2026-04-30 21:49 | 13.74277 | -67.41524 | 38889 ft | 522 kts | 40° |
| 2026-04-30 21:49 | 13.79564 | -67.36406 | 38895 ft | 522 kts | 40° |
| 2026-04-30 21:50 | 13.84825 | -67.31267 | 38893 ft | 520 kts | 40° |
| 2026-04-30 21:50 | 13.90054 | -67.26131 | 38894 ft | 519 kts | 40° |
| 2026-04-30 21:51 | 13.95271 | -67.21000 | 38891 ft | 519 kts | 40° |
| 2026-04-30 21:51 | 14.00504 | -67.15853 | 38895 ft | 521 kts | 40° |
| 2026-04-30 21:52 | 14.05717 | -67.10722 | 38897 ft | 521 kts | 40° |
| 2026-04-30 21:52 | 14.10954 | -67.05563 | 38897 ft | 521 kts | 40° |
| 2026-04-30 21:53 | 14.16202 | -67.00389 | 38897 ft | 519 kts | 40° |
| 2026-04-30 21:53 | 14.21408 | -66.95254 | 38899 ft | 518 kts | 40° |
| 2026-04-30 21:54 | 14.26612 | -66.90118 | 38898 ft | 518 kts | 40° |
| 2026-04-30 21:54 | 14.31822 | -66.84975 | 38907 ft | 519 kts | 40° |
| 2026-04-30 21:55 | 14.37012 | -66.79847 | 38905 ft | 520 kts | 40° |
| 2026-04-30 21:55 | 14.42238 | -66.74678 | 38908 ft | 520 kts | 40° |
| 2026-04-30 21:56 | 14.47458 | -66.69512 | 38908 ft | 519 kts | 40° |
| 2026-04-30 21:56 | 14.52672 | -66.64348 | 38907 ft | 519 kts | 40° |
| 2026-04-30 21:57 | 14.57875 | -66.59192 | 38907 ft | 519 kts | 40° |
| 2026-04-30 21:57 | 14.63086 | -66.54025 | 38910 ft | 520 kts | 40° |
| 2026-04-30 21:58 | 14.68306 | -66.48845 | 38915 ft | 520 kts | 40° |
| 2026-04-30 21:58 | 14.73528 | -66.43660 | 38917 ft | 520 kts | 40° |
| 2026-04-30 21:59 | 14.78711 | -66.38509 | 38916 ft | 520 kts | 40° |
| 2026-04-30 22:00 | 14.86532 | -66.30730 | 38916 ft | 520 kts | 40° |
| 2026-04-30 22:00 | 14.94345 | -66.22951 | 38926 ft | 520 kts | 40° |
| 2026-04-30 22:01 | 14.99569 | -66.17745 | 38922 ft | 521 kts | 40° |
| 2026-04-30 22:01 | 15.04781 | -66.12547 | 38923 ft | 520 kts | 40° |
| 2026-04-30 22:02 | 15.09950 | -66.07388 | 38922 ft | 519 kts | 40° |
| 2026-04-30 22:02 | 15.15149 | -66.02196 | 38924 ft | 519 kts | 40° |
| 2026-04-30 22:03 | 15.20348 | -65.97000 | 38925 ft | 519 kts | 40° |
| 2026-04-30 22:03 | 15.25542 | -65.91806 | 38921 ft | 519 kts | 40° |
| 2026-04-30 22:04 | 15.30747 | -65.86601 | 38927 ft | 520 kts | 40° |
| 2026-04-30 22:05 | 15.38587 | -65.78837 | 38925 ft | 519 kts | 40° |
| 2026-04-30 22:05 | 15.43803 | -65.73678 | 38928 ft | 518 kts | 40° |
| 2026-04-30 22:06 | 15.49031 | -65.68497 | 38933 ft | 518 kts | 40° |
| 2026-04-30 22:06 | 15.56847 | -65.60738 | 38927 ft | 518 kts | 40° |
| 2026-04-30 22:07 | 15.62005 | -65.55612 | 38939 ft | 517 kts | 40° |
| 2026-04-30 22:07 | 15.67210 | -65.50437 | 38934 ft | 518 kts | 40° |
| 2026-04-30 22:08 | 15.72414 | -65.45263 | 38936 ft | 518 kts | 40° |
| 2026-04-30 22:08 | 15.77622 | -65.40105 | 38935 ft | 518 kts | 40° |
| 2026-04-30 22:09 | 15.82836 | -65.34942 | 38938 ft | 518 kts | 40° |
| 2026-04-30 22:09 | 15.88047 | -65.29772 | 38939 ft | 518 kts | 40° |
| 2026-04-30 22:10 | 15.93265 | -65.24592 | 38940 ft | 522 kts | 40° |
| 2026-04-30 22:10 | 15.98526 | -65.19364 | 38940 ft | 524 kts | 40° |
| 2026-04-30 22:11 | 16.06385 | -65.11543 | 38941 ft | 524 kts | 40° |
| 2026-04-30 22:12 | 16.11656 | -65.06294 | 38940 ft | 524 kts | 40° |
| 2026-04-30 22:12 | 16.16922 | -65.01052 | 38941 ft | 524 kts | 40° |
| 2026-04-30 22:13 | 16.22170 | -64.95811 | 38943 ft | 523 kts | 40° |
| 2026-04-30 22:13 | 16.27458 | -64.90534 | 38943 ft | 527 kts | 40° |
| 2026-04-30 22:14 | 16.32753 | -64.85239 | 38947 ft | 528 kts | 40° |
| 2026-04-30 22:14 | 16.38008 | -64.79980 | 38949 ft | 528 kts | 40° |
| 2026-04-30 22:15 | 16.43302 | -64.74678 | 38949 ft | 528 kts | 40° |
| 2026-04-30 22:15 | 16.48589 | -64.69381 | 38947 ft | 528 kts | 40° |
| 2026-04-30 22:16 | 16.53881 | -64.64075 | 38951 ft | 528 kts | 40° |
| 2026-04-30 22:17 | 16.64452 | -64.53462 | 38952 ft | 527 kts | 40° |
| 2026-04-30 22:17 | 16.71485 | -64.46391 | 38944 ft | 527 kts | 40° |
| 2026-04-30 22:18 | 16.79403 | -64.38420 | 38953 ft | 526 kts | 40° |
| 2026-04-30 22:19 | 16.87317 | -64.30447 | 38958 ft | 528 kts | 40° |
| 2026-04-30 22:20 | 16.95242 | -64.22452 | 38954 ft | 528 kts | 40° |
| 2026-04-30 22:20 | 17.03156 | -64.14457 | 38960 ft | 528 kts | 40° |
| 2026-04-30 22:21 | 17.08443 | -64.09112 | 38957 ft | 529 kts | 40° |
| 2026-04-30 22:21 | 17.13734 | -64.03757 | 38957 ft | 529 kts | 40° |
| 2026-04-30 22:22 | 17.18980 | -63.98444 | 38954 ft | 528 kts | 40° |
| 2026-04-30 22:22 | 17.24249 | -63.93097 | 38955 ft | 527 kts | 40° |
| 2026-04-30 22:23 | 17.29509 | -63.87755 | 38973 ft | 527 kts | 40° |
| 2026-04-30 22:23 | 17.34811 | -63.82370 | 38956 ft | 534 kts | 40° |
| 2026-04-30 22:24 | 17.40154 | -63.76938 | 38961 ft | 536 kts | 40° |
| 2026-04-30 22:24 | 17.45511 | -63.71482 | 38954 ft | 535 kts | 40° |
| 2026-04-30 22:25 | 17.50834 | -63.66057 | 38957 ft | 533 kts | 40° |
| 2026-04-30 22:25 | 17.56153 | -63.60630 | 38955 ft | 533 kts | 40° |
| 2026-04-30 22:26 | 17.64130 | -63.52497 | 38955 ft | 538 kts | 40° |
| 2026-04-30 22:27 | 17.69500 | -63.47012 | 38958 ft | 539 kts | 40° |
| 2026-04-30 22:27 | 17.77546 | -63.38781 | 38956 ft | 538 kts | 40° |
| 2026-04-30 22:28 | 17.85583 | -63.30550 | 38965 ft | 538 kts | 40° |
| 2026-04-30 22:29 | 17.96334 | -63.19525 | 38966 ft | 541 kts | 40° |
| 2026-04-30 22:31 | 18.15151 | -63.00201 | 38963 ft | 541 kts | 39° |
| 2026-04-30 22:32 | 18.28595 | -62.86369 | 38977 ft | 542 kts | 40° |
| 2026-04-30 22:33 | 18.42070 | -62.72477 | 38969 ft | 543 kts | 39° |
| 2026-04-30 22:35 | 18.55560 | -62.58544 | 38985 ft | 543 kts | 39° |
| 2026-04-30 22:36 | 18.69036 | -62.44593 | 38985 ft | 544 kts | 39° |
| 2026-04-30 22:37 | 18.79838 | -62.33386 | 38985 ft | 544 kts | 39° |
| 2026-04-30 22:38 | 18.90596 | -62.22202 | 38991 ft | 544 kts | 39° |
| 2026-04-30 22:39 | 18.98690 | -62.13778 | 38991 ft | 545 kts | 39° |
| 2026-04-30 22:40 | 19.14871 | -61.96889 | 38991 ft | 545 kts | 39° |
| 2026-04-30 22:41 | 19.28314 | -61.82822 | 38995 ft | 542 kts | 39° |
| 2026-04-30 22:43 | 19.44363 | -61.65984 | 38992 ft | 543 kts | 39° |
| 2026-04-30 22:44 | 19.55090 | -61.54705 | 38993 ft | 543 kts | 39° |
| 2026-04-30 22:45 | 19.71174 | -61.37746 | 38995 ft | 543 kts | 39° |
| 2026-04-30 22:47 | 19.87197 | -61.20800 | 38998 ft | 543 kts | 39° |
| 2026-04-30 22:48 | 19.97900 | -61.09453 | 38999 ft | 544 kts | 39° |
| 2026-04-30 22:49 | 20.13968 | -60.92374 | 39001 ft | 544 kts | 39° |
| 2026-04-30 22:51 | 20.29895 | -60.75388 | 39002 ft | 537 kts | 38° |
| 2026-04-30 22:52 | 20.37844 | -60.66901 | 39004 ft | 541 kts | 39° |
| 2026-04-30 22:53 | 20.48408 | -60.55583 | 39004 ft | 537 kts | 38° |
| 2026-04-30 22:53 | 20.56309 | -60.47113 | 39001 ft | 536 kts | 38° |
| 2026-04-30 22:55 | 20.69442 | -60.33000 | 39006 ft | 536 kts | 38° |
| 2026-04-30 22:56 | 20.79939 | -60.21691 | 39007 ft | 536 kts | 38° |
| 2026-04-30 22:57 | 20.93040 | -60.07544 | 39010 ft | 536 kts | 38° |
| 2026-04-30 22:58 | 21.02665 | -59.95219 | 39011 ft | 550 kts | 52° |
| 2026-04-30 22:59 | 21.08530 | -59.84610 | 39168 ft | 553 kts | 54° |
| 2026-04-30 22:59 | 21.14318 | -59.73957 | 39884 ft | 548 kts | 54° |